createdAt,value
2022-09-20T00:01:12.083Z,86.04
2022-09-20T00:03:40.848Z,88.65
2022-09-20T00:06:09.259Z,88.08
2022-09-20T00:08:36.422Z,88.32
2022-09-20T00:11:04.208Z,87.47
2022-09-20T00:13:31.443Z,88.83
2022-09-20T00:15:59.019Z,88.32
2022-09-20T00:18:26.923Z,88.33
2022-09-20T00:20:54.043Z,88.62
2022-09-20T00:23:20.908Z,88.45
2022-09-20T00:25:55.341Z,87.62
2022-09-20T00:28:22.069Z,88.48
2022-09-20T00:30:49.255Z,88.87
2022-09-20T00:33:16.037Z,90.08
2022-09-20T00:35:45.835Z,89.95
2022-09-20T00:38:16.497Z,89.95
2022-09-20T00:40:44.750Z,89.63
2022-09-20T00:43:16.461Z,89.39
2022-09-20T00:45:47.106Z,89.42
2022-09-20T00:48:18.782Z,89.75
2022-09-20T00:50:58.032Z,89.36
2022-09-20T00:53:29.721Z,90.00
2022-09-20T00:55:58.709Z,89.99
2022-09-20T00:58:27.848Z,89.95
2022-09-20T01:00:55.889Z,90.30
2022-09-20T01:03:25.255Z,89.78
2022-09-20T01:05:53.604Z,90.48
2022-09-20T01:08:21.062Z,88.66
2022-09-20T01:10:48.496Z,88.20
2022-09-20T01:13:15.207Z,89.25
2022-09-20T01:15:42.589Z,89.26
2022-09-20T01:18:09.730Z,88.77
2022-09-20T01:20:42.154Z,89.55
2022-09-20T01:23:14.966Z,89.26
2022-09-20T01:26:04.875Z,87.05
2022-09-20T01:28:31.753Z,88.91
2022-09-20T01:31:09.314Z,89.99
2022-09-20T01:33:49.932Z,89.67
2022-09-20T01:36:23.457Z,90.47
2022-09-20T01:38:59.284Z,89.96
2022-09-20T01:41:35.429Z,89.48
2022-09-20T01:44:11.824Z,90.17
2022-09-20T01:46:38.698Z,90.60
2022-09-20T01:49:13.129Z,90.14
2022-09-20T01:52:03.060Z,90.19
2022-09-20T01:54:42.000Z,90.30
2022-09-20T01:57:27.291Z,91.01
2022-09-20T02:00:07.236Z,90.28
2022-09-20T02:03:05.413Z,89.33
2022-09-20T02:05:37.727Z,89.41
2022-09-20T02:08:22.373Z,89.57
2022-09-20T02:10:55.025Z,89.16
2022-09-20T02:13:36.266Z,88.57
2022-09-20T02:16:21.750Z,90.29
2022-09-20T02:19:07.874Z,90.07
2022-09-20T02:22:39.356Z,89.78
2022-09-20T02:25:05.936Z,90.17
2022-09-20T02:27:53.910Z,90.61
2022-09-20T02:30:35.725Z,90.92
2022-09-20T02:33:05.432Z,91.27
2022-09-20T02:35:41.750Z,90.68
2022-09-20T02:38:18.169Z,91.04
2022-09-20T02:41:04.012Z,91.14
2022-09-20T02:43:33.673Z,90.59
2022-09-20T02:46:19.317Z,91.40
2022-09-20T02:48:51.779Z,89.75
2022-09-20T02:51:41.808Z,90.62
2022-09-20T02:54:26.801Z,90.20
2022-09-20T02:57:18.247Z,90.02
2022-09-20T03:00:00.758Z,90.64
2022-09-20T03:02:39.841Z,90.60
2022-09-20T03:05:14.437Z,90.43
2022-09-20T03:07:41.187Z,90.21
2022-09-20T03:10:26.223Z,90.46
2022-09-20T03:13:17.768Z,90.80
2022-09-20T03:15:47.115Z,89.01
2022-09-20T03:18:19.746Z,89.83
2022-09-20T03:21:06.689Z,90.00
2022-09-20T03:24:10.986Z,90.32
2022-09-20T03:26:42.341Z,90.36
2022-09-20T03:29:21.066Z,90.02
2022-09-20T03:32:22.308Z,91.54
2022-09-20T03:34:53.988Z,90.31
2022-09-20T03:37:42.063Z,90.71
2022-09-20T03:41:01.701Z,92.08
2022-09-20T03:43:34.277Z,91.49
2022-09-20T03:46:26.681Z,91.27
2022-09-20T03:49:21.185Z,90.23
2022-09-20T03:52:01.172Z,90.92
2022-09-20T03:54:53.655Z,91.04
2022-09-20T03:57:35.450Z,91.17
2022-09-20T04:00:20.852Z,91.07
2022-09-20T04:03:12.623Z,90.74
2022-09-20T04:05:39.304Z,91.22
2022-09-20T04:08:08.724Z,90.33
2022-09-20T04:10:59.808Z,90.36
2022-09-20T04:13:40.933Z,90.68
2022-09-20T04:16:23.489Z,90.57
2022-09-20T04:18:58.491Z,90.83
2022-09-20T04:21:37.387Z,90.88
2022-09-20T04:24:14.849Z,90.43
2022-09-20T04:26:47.015Z,91.30
2022-09-20T04:29:46.060Z,91.69
2022-09-20T04:32:29.288Z,91.38
2022-09-20T04:35:50.059Z,90.74
2022-09-20T04:38:19.007Z,89.56
2022-09-20T04:40:57.708Z,90.15
2022-09-20T04:43:51.248Z,89.74
2022-09-20T04:46:26.026Z,90.92
2022-09-20T04:49:20.829Z,89.95
2022-09-20T04:52:04.108Z,91.28
2022-09-20T04:55:10.369Z,91.24
2022-09-20T04:58:16.306Z,91.06
2022-09-20T05:00:56.047Z,90.36
2022-09-20T05:04:00.281Z,91.76
2022-09-20T05:06:43.914Z,91.52
2022-09-20T05:09:36.530Z,90.50
2022-09-20T05:12:44.795Z,89.14
2022-09-20T05:15:16.700Z,89.08
2022-09-20T05:18:01.875Z,88.43
2022-09-20T05:20:47.242Z,87.33
2022-09-20T05:23:13.962Z,88.37
2022-09-20T05:26:13.109Z,87.72
2022-09-20T05:28:58.591Z,88.71
2022-09-20T05:31:40.398Z,89.36
2022-09-20T05:34:29.249Z,90.24
2022-09-20T05:37:02.053Z,91.09
2022-09-20T05:39:38.891Z,89.59
2022-09-20T05:42:18.411Z,88.64
2022-09-20T05:45:04.400Z,89.47
2022-09-20T05:48:01.872Z,89.77
2022-09-20T05:50:55.814Z,90.37
2022-09-20T05:53:45.671Z,89.81
2022-09-20T05:56:27.276Z,90.27
2022-09-20T05:58:59.840Z,91.20
2022-09-20T06:01:31.656Z,91.02
2022-09-20T06:04:05.760Z,90.63
2022-09-20T06:07:02.454Z,90.54
2022-09-20T06:09:52.410Z,90.89
2022-09-20T06:12:31.393Z,91.97
2022-09-20T06:15:19.826Z,91.96
2022-09-20T06:18:20.995Z,92.21
2022-09-20T06:20:56.906Z,91.99
2022-09-20T06:23:23.747Z,91.96
2022-09-20T06:25:57.275Z,91.37
2022-09-20T06:28:58.264Z,91.27
2022-09-20T06:31:26.404Z,90.81
2022-09-20T06:34:04.265Z,91.49
2022-09-20T06:36:55.173Z,91.64
2022-09-20T06:39:49.060Z,90.94
2022-09-20T06:42:15.847Z,91.51
2022-09-20T06:44:43.381Z,91.61
2022-09-20T06:47:11.059Z,89.88
2022-09-20T06:49:37.862Z,90.37
2022-09-20T06:52:05.752Z,91.30
2022-09-20T06:54:32.989Z,90.75
2022-09-20T06:57:03.307Z,90.09
2022-09-20T06:59:30.027Z,90.31
2022-09-20T07:01:57.194Z,90.56
2022-09-20T07:04:24.931Z,91.04
2022-09-20T07:06:51.669Z,90.98
2022-09-20T07:09:18.434Z,90.29
2022-09-20T07:11:46.205Z,91.40
2022-09-20T07:14:12.951Z,89.89
2022-09-20T07:16:40.111Z,90.50
2022-09-20T07:19:06.903Z,90.35
2022-09-20T07:21:33.594Z,89.54
2022-09-20T07:24:00.469Z,89.31
2022-09-20T07:26:29.329Z,89.90
2022-09-20T07:28:57.487Z,89.40
2022-09-20T07:31:26.639Z,89.87
2022-09-20T07:33:53.756Z,88.45
2022-09-20T07:36:20.583Z,89.76
2022-09-20T07:38:50.168Z,88.67
2022-09-20T07:41:19.097Z,89.28
2022-09-20T07:43:46.598Z,89.65
2022-09-20T07:46:16.210Z,88.51
2022-09-20T07:48:42.995Z,88.61
2022-09-20T07:51:12.794Z,87.65
2022-09-20T07:53:40.143Z,88.16
2022-09-20T07:56:11.609Z,88.14
2022-09-20T07:58:38.751Z,88.11
2022-09-20T08:01:10.794Z,87.28
2022-09-20T08:03:37.908Z,85.94
2022-09-20T08:06:07.276Z,84.99
2022-09-20T08:08:38.553Z,85.58
2022-09-20T08:11:08.027Z,84.00
2022-09-20T08:16:27.222Z,85.44
2022-09-20T08:19:00.280Z,85.15
2022-09-20T08:21:34.841Z,85.59
2022-09-20T08:24:01.864Z,84.88
2022-09-20T08:26:31.181Z,85.23
2022-09-20T08:29:00.127Z,86.34
2022-09-20T08:31:34.450Z,86.18
2022-09-20T08:34:04.996Z,86.02
2022-09-20T08:36:36.792Z,85.21
2022-09-20T08:41:56.809Z,85.87
2022-09-20T08:44:34.755Z,83.73
2022-09-20T08:47:17.687Z,85.16
2022-09-20T08:49:46.080Z,85.36
2022-09-20T08:52:19.162Z,85.79
2022-09-20T08:54:46.179Z,86.47
2022-09-20T08:57:16.065Z,86.10
2022-09-20T08:59:42.968Z,87.14
2022-09-20T09:02:19.010Z,85.70
2022-09-20T09:04:46.500Z,86.15
2022-09-20T09:07:15.189Z,86.05
2022-09-20T09:09:46.702Z,85.76
2022-09-20T09:12:26.478Z,86.03
2022-09-20T09:14:57.309Z,86.27
2022-09-20T09:17:27.906Z,86.20
2022-09-20T09:19:56.825Z,86.07
2022-09-20T09:22:36.891Z,86.98
2022-09-20T09:25:42.069Z,87.08
2022-09-20T09:28:08.774Z,86.26
2022-09-20T09:30:37.874Z,86.47
2022-09-20T09:33:20.047Z,84.62
2022-09-20T09:36:05.445Z,84.13
2022-09-20T09:38:36.780Z,84.39
2022-09-20T09:41:06.041Z,84.35
2022-09-20T09:43:35.642Z,85.21
2022-09-20T09:46:21.620Z,84.29
2022-09-20T09:49:12.266Z,83.82
2022-09-20T09:51:42.457Z,83.35
2022-09-20T09:54:17.034Z,82.71
2022-09-20T09:57:01.900Z,82.79
2022-09-20T09:59:47.950Z,82.20
2022-09-20T10:02:39.352Z,82.58
2022-09-20T10:05:42.784Z,81.51
2022-09-20T10:08:30.798Z,82.35
2022-09-20T10:11:00.905Z,82.67
2022-09-20T10:13:55.654Z,82.40
2022-09-20T10:16:37.291Z,81.28
2022-09-20T10:19:22.813Z,80.75
2022-09-20T10:22:01.848Z,80.37
2022-09-20T10:24:31.465Z,80.94
2022-09-20T10:27:07.230Z,81.12
2022-09-20T10:30:00.410Z,82.55
2022-09-20T10:33:01.407Z,80.04
2022-09-20T10:35:37.452Z,78.83
2022-09-20T10:38:25.229Z,79.30
2022-09-20T10:41:10.387Z,80.34
2022-09-20T10:44:04.174Z,78.08
2022-09-20T10:46:38.154Z,80.12
2022-09-20T10:49:24.994Z,78.83
2022-09-20T10:52:08.538Z,76.26
2022-09-20T10:54:38.405Z,76.16
2022-09-20T10:57:28.585Z,77.82
2022-09-20T11:00:17.890Z,75.33
2022-09-20T11:02:50.686Z,76.83
2022-09-20T11:05:28.596Z,74.61
2022-09-20T11:08:03.765Z,75.66
2022-09-20T11:10:42.410Z,74.17
2022-09-20T11:13:27.507Z,74.25
2022-09-20T11:16:00.339Z,75.37
2022-09-20T11:18:33.610Z,74.66
2022-09-20T11:21:08.931Z,75.07
2022-09-20T11:24:06.699Z,76.48
2022-09-20T11:26:40.677Z,74.76
2022-09-20T11:29:24.306Z,75.68
2022-09-20T11:31:53.285Z,75.36
2022-09-20T11:34:30.167Z,74.92
2022-09-20T11:37:01.315Z,73.50
2022-09-20T11:39:40.464Z,73.47
2022-09-20T11:42:14.513Z,72.98
2022-09-20T11:44:41.969Z,74.34
2022-09-20T11:47:42.928Z,73.58
2022-09-20T11:50:17.742Z,71.20
2022-09-20T11:53:10.977Z,74.73
2022-09-20T11:55:59.175Z,70.11
2022-09-20T11:58:27.384Z,71.66
2022-09-20T12:00:56.611Z,68.87
2022-09-20T12:03:37.492Z,67.80
2022-09-20T12:06:33.433Z,68.61
2022-09-20T12:09:16.172Z,66.78
2022-09-20T12:11:43.222Z,66.64
2022-09-20T12:14:26.300Z,65.10
2022-09-20T12:16:54.042Z,66.15
2022-09-20T12:19:33.360Z,63.13
2022-09-20T12:22:01.056Z,64.82
2022-09-20T12:24:29.403Z,61.98
2022-09-20T12:26:59.653Z,60.40
2022-09-20T12:29:35.209Z,61.17
2022-09-20T12:32:03.341Z,60.21
2022-09-20T12:34:36.140Z,56.13
2022-09-20T12:37:04.741Z,56.57
2022-09-20T12:39:36.115Z,59.72
2022-09-20T12:42:12.002Z,58.22
2022-09-20T12:45:00.421Z,59.23
2022-09-20T12:47:30.005Z,56.88
2022-09-20T12:50:17.002Z,54.31
2022-09-20T12:53:02.653Z,57.46
2022-09-20T12:55:56.599Z,61.58
2022-09-20T12:58:26.263Z,58.85
2022-09-20T13:01:14.477Z,59.18
2022-09-20T13:03:43.550Z,58.33
2022-09-20T13:06:10.205Z,57.19
2022-09-20T13:08:48.029Z,58.86
2022-09-20T13:11:21.119Z,60.72
2022-09-20T13:13:50.657Z,59.38
2022-09-20T13:16:27.534Z,61.59
2022-09-20T13:19:12.739Z,60.68
2022-09-20T13:21:41.809Z,59.71
2022-09-20T13:24:15.591Z,61.42
2022-09-20T13:26:45.768Z,61.30
2022-09-20T13:29:35.129Z,61.11
2022-09-20T13:32:27.875Z,60.02
2022-09-20T13:35:12.698Z,58.59
2022-09-20T13:37:53.185Z,59.71
2022-09-20T13:40:38.542Z,58.44
2022-09-20T13:43:23.243Z,57.96
2022-09-20T13:45:57.601Z,58.29
2022-09-20T13:48:26.490Z,58.10
2022-09-20T13:50:54.057Z,58.95
2022-09-20T13:53:40.691Z,58.52
2022-09-20T13:56:29.888Z,58.53
2022-09-20T13:58:59.038Z,59.64
2022-09-20T14:01:34.461Z,60.50
2022-09-20T14:04:13.799Z,61.07
2022-09-20T14:06:40.973Z,59.74
2022-09-20T14:09:11.304Z,60.50
2022-09-20T14:11:38.670Z,60.36
2022-09-20T14:14:05.637Z,60.62
2022-09-20T14:16:34.972Z,58.22
2022-09-20T14:19:02.898Z,58.41
2022-09-20T14:21:32.772Z,57.96
2022-09-20T14:24:04.934Z,56.45
2022-09-20T14:26:39.886Z,56.88
2022-09-20T14:29:34.588Z,58.28
2022-09-20T14:32:07.410Z,59.74
2022-09-20T14:34:38.938Z,58.91
2022-09-20T14:37:11.390Z,57.20
2022-09-20T14:39:47.970Z,57.31
2022-09-20T14:42:30.599Z,58.76
2022-09-20T14:44:57.630Z,56.56
2022-09-20T14:47:38.702Z,54.49
2022-09-20T14:50:24.193Z,53.53
2022-09-20T14:53:11.255Z,54.30
2022-09-20T14:56:10.159Z,51.47
2022-09-20T14:59:11.027Z,47.83
2022-09-20T15:01:41.158Z,46.43
2022-09-20T15:04:23.053Z,47.02
2022-09-20T15:06:51.280Z,42.97
2022-09-20T15:09:18.976Z,40.85
2022-09-20T15:11:45.721Z,42.78
2022-09-20T15:14:12.508Z,39.69
2022-09-20T15:16:39.374Z,38.40
2022-09-20T15:19:08.094Z,38.69
2022-09-20T15:21:34.965Z,39.03
2022-09-20T15:24:01.970Z,37.77
2022-09-20T15:26:29.405Z,37.12
2022-09-20T15:28:56.215Z,38.68
2022-09-20T15:31:23.176Z,38.18
2022-09-20T15:33:50.044Z,39.60
2022-09-20T15:36:17.218Z,36.58
2022-09-20T15:38:44.037Z,35.64
2022-09-20T15:41:10.801Z,36.09
2022-09-20T15:43:37.699Z,34.93
2022-09-20T15:46:19.776Z,34.58
2022-09-20T15:48:46.865Z,36.83
2022-09-20T15:51:15.231Z,36.19
2022-09-20T15:53:48.693Z,34.06
2022-09-20T15:56:18.050Z,34.07
2022-09-20T16:11:58.862Z,38.06
2022-09-20T16:14:25.913Z,39.98
2022-09-20T16:16:52.660Z,41.23
2022-09-20T16:19:23.754Z,43.22
2022-09-20T16:21:58.215Z,44.78
2022-09-20T16:24:27.872Z,44.79
2022-09-20T16:26:54.868Z,46.12
2022-09-20T16:29:25.925Z,46.69
2022-09-20T16:31:54.062Z,48.39
2022-09-20T16:34:32.520Z,48.79
2022-09-20T16:37:08.878Z,51.36
2022-09-20T16:39:35.739Z,52.32
2022-09-20T16:42:04.870Z,53.01
2022-09-20T16:44:36.608Z,53.33
2022-09-20T16:47:08.870Z,53.40
2022-09-20T16:49:36.481Z,54.87
2022-09-20T16:52:07.062Z,54.10
2022-09-20T16:54:34.130Z,53.83
2022-09-20T16:57:01.314Z,54.43
2022-09-20T16:59:28.349Z,55.79
2022-09-20T17:01:55.141Z,55.69
2022-09-20T17:04:22.056Z,56.15
2022-09-20T17:06:49.591Z,57.35
2022-09-20T17:09:16.690Z,57.14
2022-09-20T17:11:49.330Z,57.45
2022-09-20T17:14:18.598Z,56.81
2022-09-20T17:16:49.484Z,58.20
2022-09-20T17:19:19.924Z,58.24
2022-09-20T17:21:50.200Z,58.49
2022-09-20T17:24:19.712Z,59.62
2022-09-20T17:26:46.519Z,59.45
2022-09-20T17:29:16.206Z,60.43
2022-09-20T17:31:48.804Z,61.75
2022-09-20T17:34:21.567Z,60.14
2022-09-20T17:36:49.226Z,62.07
2022-09-20T17:39:16.637Z,62.46
2022-09-20T17:41:48.017Z,63.14
2022-09-20T17:44:15.664Z,62.87
2022-09-20T17:46:46.820Z,61.92
2022-09-20T17:49:16.779Z,63.22
2022-09-20T17:51:54.860Z,63.00
2022-09-20T17:54:23.261Z,62.09
2022-09-20T17:56:51.799Z,62.11
2022-09-20T17:59:19.495Z,62.41
2022-09-20T18:01:48.283Z,63.30
2022-09-20T18:04:15.924Z,62.77
2022-09-20T18:06:48.075Z,62.65
2022-09-20T18:09:16.596Z,64.16
2022-09-20T18:11:49.710Z,63.22
2022-09-20T18:14:23.217Z,63.65
2022-09-20T18:17:00.042Z,63.91
2022-09-20T18:19:33.877Z,63.07
2022-09-20T18:22:04.288Z,63.69
2022-09-20T18:24:31.635Z,64.59
2022-09-20T18:27:00.646Z,64.54
2022-09-20T18:29:28.727Z,64.65
2022-09-20T18:31:55.669Z,64.97
2022-09-20T18:34:31.241Z,66.03
2022-09-20T18:36:59.145Z,64.38
2022-09-20T18:39:27.954Z,64.94
2022-09-20T18:41:55.342Z,64.76
2022-09-20T18:44:22.874Z,63.93
2022-09-20T18:46:53.087Z,66.65
2022-09-20T18:49:21.540Z,66.63
2022-09-20T18:51:49.338Z,66.97
2022-09-20T18:54:16.730Z,66.43
2022-09-20T18:56:48.141Z,66.42
2022-09-20T18:59:20.337Z,65.68
2022-09-20T19:01:50.075Z,65.70
2022-09-20T19:04:58.519Z,66.07
2022-09-20T19:07:28.099Z,66.06
2022-09-20T19:10:06.866Z,65.64
2022-09-20T19:12:48.785Z,65.68
2022-09-20T19:15:22.702Z,66.84
2022-09-20T19:17:54.307Z,66.92
2022-09-20T19:20:34.029Z,66.02
2022-09-20T19:23:19.793Z,66.06
2022-09-20T19:25:47.540Z,66.02
2022-09-20T19:28:15.906Z,65.33
2022-09-20T19:30:43.105Z,66.75
2022-09-20T19:33:16.429Z,65.72
2022-09-20T19:35:49.489Z,66.24
2022-09-20T19:38:41.408Z,66.90
2022-09-20T19:41:30.559Z,68.55
2022-09-20T19:44:21.956Z,66.86
2022-09-20T19:47:20.035Z,66.48
2022-09-20T19:49:56.983Z,67.89
2022-09-20T19:52:24.262Z,68.45
2022-09-20T19:54:52.013Z,68.01
2022-09-20T19:57:21.857Z,69.29
2022-09-20T19:59:49.731Z,68.96
2022-09-20T20:02:17.550Z,69.76
2022-09-20T20:04:44.831Z,68.96
2022-09-20T20:07:40.889Z,70.19
2022-09-20T20:10:32.100Z,70.63
2022-09-20T20:13:37.587Z,69.76
2022-09-20T20:16:12.377Z,69.87
2022-09-20T20:18:39.074Z,70.93
2022-09-20T20:21:18.203Z,71.25
2022-09-20T20:24:05.002Z,70.56
2022-09-20T20:26:31.974Z,70.69
2022-09-20T20:28:58.674Z,70.36
2022-09-20T20:31:25.492Z,71.06
2022-09-20T20:33:52.611Z,70.32
2022-09-20T20:36:19.355Z,70.27
2022-09-20T20:38:49.969Z,70.99
2022-09-20T20:41:21.760Z,71.30
2022-09-20T20:43:53.287Z,71.56
2022-09-20T20:46:20.136Z,71.95
2022-09-20T20:48:50.202Z,73.42
2022-09-20T20:51:19.079Z,73.32
2022-09-20T20:53:48.128Z,73.28
2022-09-20T20:56:17.859Z,72.79
2022-09-20T20:58:45.762Z,71.02
2022-09-20T21:01:21.316Z,72.75
2022-09-20T21:03:52.571Z,73.62
2022-09-20T21:06:20.521Z,72.79
2022-09-20T21:08:49.801Z,72.02
2022-09-20T21:11:25.316Z,71.58
2022-09-20T21:13:53.037Z,71.74
2022-09-20T21:16:22.914Z,73.32
2022-09-20T21:18:51.001Z,74.09
2022-09-20T21:21:22.655Z,73.10
2022-09-20T21:23:51.914Z,72.91
2022-09-20T21:26:19.562Z,74.04
2022-09-20T21:28:51.462Z,74.63
2022-09-20T21:31:19.247Z,74.56
2022-09-20T21:33:46.051Z,74.67
2022-09-20T21:36:14.648Z,75.42
2022-09-20T21:38:42.440Z,76.28
2022-09-20T21:41:09.138Z,77.20
2022-09-20T21:43:36.418Z,77.39
2022-09-20T21:46:04.042Z,77.19
2022-09-20T21:48:30.895Z,77.58
2022-09-20T21:51:02.549Z,77.95
2022-09-20T21:53:29.860Z,77.76
2022-09-20T21:56:00.598Z,77.53
2022-09-20T21:58:28.051Z,78.32
2022-09-20T22:01:04.448Z,78.07
2022-09-20T22:03:32.138Z,78.29
2022-09-20T22:06:08.748Z,78.72
2022-09-20T22:08:42.219Z,78.46
2022-09-20T22:11:15.047Z,78.92
2022-09-20T22:13:50.028Z,79.50
2022-09-20T22:16:20.897Z,80.28
2022-09-20T22:18:49.867Z,79.50
2022-09-20T22:21:19.247Z,78.80
2022-09-20T22:23:52.196Z,78.64
2022-09-20T22:26:21.789Z,78.10
2022-09-20T22:28:51.950Z,78.12
2022-09-20T22:31:23.920Z,78.75
2022-09-20T22:33:55.623Z,79.15
2022-09-20T22:36:27.423Z,79.89
2022-09-20T22:38:54.692Z,80.01
2022-09-20T22:41:21.915Z,79.35
2022-09-20T22:43:49.022Z,78.70
2022-09-20T22:46:18.440Z,78.98
2022-09-20T22:48:45.635Z,79.38
2022-09-20T22:51:15.135Z,79.74
2022-09-20T22:53:42.264Z,79.93
2022-09-20T22:56:12.163Z,78.81
2022-09-20T22:58:44.361Z,79.12
2022-09-20T23:01:15.340Z,79.45
2022-09-20T23:03:43.017Z,78.88
2022-09-20T23:06:14.239Z,79.54
2022-09-20T23:08:41.482Z,79.23
2022-09-20T23:11:08.883Z,79.10
2022-09-20T23:13:36.588Z,78.69
2022-09-20T23:16:20.246Z,77.86
2022-09-20T23:18:48.134Z,76.54
2022-09-20T23:21:15.284Z,77.71
2022-09-20T23:23:45.266Z,78.24
2022-09-20T23:26:18.856Z,78.23
2022-09-20T23:28:51.715Z,79.17
2022-09-20T23:31:19.005Z,79.71
2022-09-20T23:33:53.638Z,79.85
2022-09-20T23:36:21.083Z,80.19
2022-09-20T23:38:48.481Z,80.23
2022-09-20T23:41:18.320Z,80.30
2022-09-20T23:43:45.349Z,80.36
2022-09-20T23:46:13.839Z,80.38
2022-09-20T23:48:44.391Z,79.60
2022-09-20T23:51:13.411Z,79.00
2022-09-20T23:53:40.542Z,79.66
2022-09-20T23:56:07.663Z,79.43
2022-09-20T23:58:36.508Z,79.22
